createdAt,value
2022-12-23T13:19:32.129Z,100.00
2022-12-23T13:23:43.479Z,100.00
2022-12-23T13:28:08.072Z,100.00
2022-12-23T13:32:22.990Z,100.00
2022-12-23T13:36:44.403Z,100.00
2022-12-23T13:41:02.825Z,100.00
2022-12-23T13:45:06.847Z,100.00
2022-12-23T13:49:36.519Z,100.00
2022-12-23T13:53:55.287Z,100.00
2022-12-23T13:58:15.942Z,100.00
2022-12-23T14:02:36.334Z,100.00
2022-12-23T14:06:38.099Z,100.00
2022-12-23T14:10:39.904Z,100.00
2022-12-23T14:15:03.593Z,100.00
2022-12-23T14:19:33.027Z,100.00
2022-12-23T14:24:03.994Z,100.00
2022-12-23T14:28:45.255Z,100.00
2022-12-23T14:32:58.589Z,100.00
2022-12-23T14:37:21.956Z,100.00
2022-12-23T14:41:38.984Z,100.00
2022-12-23T14:45:44.013Z,100.00
2022-12-23T14:49:45.873Z,100.00
2022-12-23T14:54:00.190Z,100.00
2022-12-23T14:58:20.550Z,100.00
2022-12-23T15:02:33.559Z,100.00
2022-12-23T15:06:41.028Z,100.00
2022-12-23T15:10:44.424Z,100.00
2022-12-23T15:14:55.289Z,100.00
2022-12-23T15:19:00.357Z,100.00
2022-12-23T15:23:09.076Z,100.00
2022-12-23T15:27:27.107Z,100.00
2022-12-23T15:31:42.519Z,100.00
2022-12-23T15:35:45.951Z,100.00
2022-12-23T15:39:52.372Z,100.00
2022-12-23T15:44:01.917Z,100.00
2022-12-23T15:48:05.755Z,100.00
2022-12-23T15:52:12.301Z,100.00
2022-12-23T15:56:24.363Z,100.00
2022-12-23T16:00:37.798Z,100.00
2022-12-23T16:04:39.620Z,100.00
2022-12-23T16:08:42.900Z,100.00
2022-12-23T16:12:44.961Z,100.00
2022-12-23T16:16:47.183Z,100.00
2022-12-23T16:20:53.803Z,100.00
2022-12-23T16:25:16.657Z,100.00
2022-12-23T16:29:18.443Z,100.00
2022-12-23T16:33:23.235Z,100.00
2022-12-23T16:37:24.929Z,100.00
2022-12-23T16:41:26.804Z,100.00
2022-12-23T16:45:31.677Z,100.00
2022-12-23T16:49:35.566Z,100.00
2022-12-23T16:53:37.434Z,100.00
2022-12-23T16:57:40.142Z,100.00
2022-12-23T17:01:47.562Z,100.00
2022-12-23T17:05:49.705Z,100.00
2022-12-23T17:09:51.484Z,100.00
2022-12-23T17:13:57.902Z,100.00
2022-12-23T17:18:03.317Z,100.00
2022-12-23T17:22:05.404Z,100.00
2022-12-23T17:26:07.084Z,100.00
2022-12-23T17:30:23.583Z,100.00
2022-12-23T17:34:25.393Z,100.00
2022-12-23T17:38:30.539Z,100.00
2022-12-23T17:42:33.000Z,100.00
2022-12-23T17:46:35.071Z,100.00
2022-12-23T17:50:37.678Z,100.00
2022-12-23T17:54:39.435Z,100.00
2022-12-23T17:58:42.510Z,100.00
2022-12-23T18:02:44.780Z,100.00
2022-12-23T18:06:46.658Z,100.00
2022-12-23T18:10:48.632Z,100.00
2022-12-23T18:14:50.458Z,100.00
2022-12-23T18:18:52.981Z,100.00
2022-12-23T18:22:55.374Z,100.00
2022-12-23T18:26:57.163Z,100.00
2022-12-23T18:30:59.042Z,100.00
2022-12-23T18:35:00.832Z,100.00
2022-12-23T18:39:02.878Z,100.00
2022-12-23T18:43:05.140Z,100.00
2022-12-23T18:47:06.969Z,100.00
2022-12-23T18:51:17.428Z,100.00
2022-12-23T18:55:19.383Z,100.00
2022-12-23T18:59:29.535Z,100.00
2022-12-23T19:03:32.665Z,100.00
2022-12-23T19:07:34.718Z,100.00
2022-12-23T19:11:36.491Z,100.00
2022-12-23T19:15:38.312Z,100.00
2022-12-23T19:19:40.069Z,100.00
2022-12-23T19:23:43.005Z,100.00
2022-12-23T19:27:45.680Z,100.00
2022-12-23T19:31:47.385Z,100.00
2022-12-23T19:35:49.213Z,100.00
2022-12-23T19:39:51.018Z,100.00
2022-12-23T19:43:52.768Z,100.00
2022-12-23T19:47:54.553Z,100.00
2022-12-23T19:51:56.278Z,100.00
2022-12-23T19:56:04.087Z,100.00
2022-12-23T20:00:06.816Z,100.00
2022-12-23T20:04:13.891Z,100.00
2022-12-23T20:08:16.546Z,100.00
2022-12-23T20:12:18.341Z,100.00
2022-12-23T20:16:20.824Z,100.00
2022-12-23T20:20:22.647Z,100.00
2022-12-23T20:24:24.362Z,100.00
2022-12-23T20:28:26.496Z,100.00
2022-12-23T20:32:28.277Z,100.00
2022-12-23T20:36:32.824Z,100.00
2022-12-23T20:40:34.618Z,100.00
2022-12-23T20:44:37.517Z,100.00
2022-12-23T20:48:39.483Z,100.00
2022-12-23T20:52:41.210Z,100.00
2022-12-23T20:56:43.039Z,100.00
2022-12-23T21:00:44.768Z,100.00
2022-12-23T21:04:46.557Z,100.00
2022-12-23T21:08:48.628Z,100.00
2022-12-23T21:12:50.382Z,100.00
2022-12-23T21:16:52.271Z,100.00
2022-12-23T21:20:58.867Z,100.00
2022-12-23T21:25:00.655Z,100.00
2022-12-23T21:29:05.040Z,100.00
2022-12-23T21:33:06.795Z,100.00
2022-12-23T21:37:08.633Z,100.00
2022-12-23T21:41:15.854Z,100.00
2022-12-23T21:45:17.651Z,100.00
2022-12-23T21:49:20.481Z,100.00
2022-12-23T21:53:22.258Z,100.00
2022-12-23T21:57:24.130Z,100.00
2022-12-23T22:01:27.156Z,100.00
2022-12-23T22:05:28.916Z,100.00
2022-12-23T22:09:32.752Z,100.00
2022-12-23T22:13:34.592Z,100.00
2022-12-23T22:17:36.436Z,100.00
2022-12-23T22:21:39.876Z,100.00
2022-12-23T22:25:41.798Z,100.00
2022-12-23T22:29:43.507Z,100.00
2022-12-23T22:33:45.567Z,100.00
2022-12-23T22:37:47.459Z,100.00
2022-12-23T22:41:51.044Z,100.00
2022-12-23T22:45:57.770Z,100.00
2022-12-23T22:49:59.700Z,100.00
2022-12-23T22:54:03.557Z,99.76
2022-12-23T22:58:05.347Z,99.55
2022-12-23T23:02:07.175Z,99.24
2022-12-23T23:06:11.280Z,99.18
2022-12-23T23:10:13.416Z,98.76
2022-12-23T23:14:15.645Z,98.62
2022-12-23T23:18:17.412Z,98.74
2022-12-23T23:22:21.853Z,98.41
2022-12-23T23:26:27.357Z,98.69
2022-12-23T23:30:29.675Z,98.10
2022-12-23T23:34:31.645Z,98.27
2022-12-23T23:38:33.603Z,98.04
2022-12-23T23:42:35.449Z,98.30
2022-12-23T23:46:37.381Z,97.90
2022-12-23T23:50:39.565Z,97.87
2022-12-23T23:54:41.392Z,98.19
2022-12-23T23:58:43.711Z,98.05
